地図

経路データ

SID SEASON NUMBER BASIN SUBBASIN NAME ISO_TIME NATURE LAT LON WMO_WIND WMO_PRES WMO_AGENCY TRACK_TYPE DIST2LAND LANDFALL IFLAG USA_AGENCY USA_ATCF_ID USA_LAT USA_LON USA_RECORD USA_STATUS USA_WIND USA_PRES USA_SSHS USA_R34_NE USA_R34_SE USA_R34_SW USA_R34_NW USA_R50_NE USA_R50_SE USA_R50_SW USA_R50_NW USA_R64_NE USA_R64_SE USA_R64_SW USA_R64_NW USA_POCI USA_ROCI USA_RMW USA_EYE TOKYO_LAT TOKYO_LON TOKYO_GRADE TOKYO_WIND TOKYO_PRES TOKYO_R50_DIR TOKYO_R50_LONG TOKYO_R50_SHORT TOKYO_R30_DIR TOKYO_R30_LONG TOKYO_R30_SHORT TOKYO_LAND CMA_LAT CMA_LON CMA_CAT CMA_WIND CMA_PRES HKO_LAT HKO_LON HKO_CAT HKO_WIND HKO_PRES NEWDELHI_LAT NEWDELHI_LON NEWDELHI_GRADE NEWDELHI_WIND NEWDELHI_PRES NEWDELHI_CI NEWDELHI_DP NEWDELHI_POCI REUNION_LAT REUNION_LON REUNION_TYPE REUNION_WIND REUNION_PRES REUNION_TNUM REUNION_CI REUNION_RMW REUNION_R34_NE REUNION_R34_SE REUNION_R34_SW REUNION_R34_NW REUNION_R50_NE REUNION_R50_SE REUNION_R50_SW REUNION_R50_NW REUNION_R64_NE REUNION_R64_SE REUNION_R64_SW REUNION_R64_NW BOM_LAT BOM_LON BOM_TYPE BOM_WIND BOM_PRES BOM_TNUM BOM_CI BOM_RMW BOM_R34_NE BOM_R34_SE BOM_R34_SW BOM_R34_NW BOM_R50_NE BOM_R50_SE BOM_R50_SW BOM_R50_NW BOM_R64_NE BOM_R64_SE BOM_R64_SW BOM_R64_NW BOM_ROCI BOM_POCI BOM_EYE BOM_POS_METHOD BOM_PRES_METHOD NADI_LAT NADI_LON NADI_CAT NADI_WIND NADI_PRES WELLINGTON_LAT WELLINGTON_LON WELLINGTON_WIND WELLINGTON_PRES DS824_LAT DS824_LON DS824_STAGE DS824_WIND DS824_PRES TD9636_LAT TD9636_LON TD9636_STAGE TD9636_WIND TD9636_PRES TD9635_LAT TD9635_LON TD9635_WIND TD9635_PRES TD9635_ROCI NEUMANN_LAT NEUMANN_LON NEUMANN_CLASS NEUMANN_WIND NEUMANN_PRES MLC_LAT MLC_LON MLC_CLASS MLC_WIND MLC_PRES USA_GUST BOM_GUST BOM_GUST_PER REUNION_GUST REUNION_GUST_PER USA_SEAHGT USA_SEARAD_NE USA_SEARAD_SE USA_SEARAD_SW USA_SEARAD_NW STORM_SPEED STORM_DIR
1997247N18248 1997 79 EP MM KEVIN 1997-09-03 18:00:00 TS 17.7000 -112.200 30 1009 hurdat_epa main 625 618 O_____________ hurdat_epa EP131997 17.7000 -112.200 TD 30 1009 -1 13 293
1997247N18248 1997 79 EP MM KEVIN 1997-09-03 21:00:00 TS 17.9505 -112.820 main 620 620 P_____________ EP131997 17.9505 -112.820 TD 30 1008 -1 12 294
1997247N18248 1997 79 EP MM KEVIN 1997-09-04 00:00:00 TS 18.2000 -113.400 30 1007 hurdat_epa main 633 630 O_____________ hurdat_epa EP131997 18.2000 -113.400 TD 30 1007 -1 12 296
1997247N18248 1997 79 EP MM KEVIN 1997-09-04 03:00:00 TS 18.4497 -113.915 main 646 637 P_____________ EP131997 18.4497 -113.915 TD 32 1005 -1 11 298
1997247N18248 1997 79 EP MM KEVIN 1997-09-04 06:00:00 TS 18.7000 -114.400 35 1004 hurdat_epa main 655 654 O_____________ hurdat_epa EP131997 18.7000 -114.400 TS 35 1004 0 11 299
1997247N18248 1997 79 EP MM KEVIN 1997-09-04 09:00:00 TS 18.9572 -114.885 main 669 669 P_____________ EP131997 18.9572 -114.885 TS 37 1002 0 11 298
1997247N18248 1997 79 EP MM KEVIN 1997-09-04 12:00:00 TS 19.2000 -115.400 40 1001 hurdat_epa main 696 696 O_____________ hurdat_epa EP131997 19.2000 -115.400 TS 40 1001 0 11 293
1997247N18248 1997 79 EP MM KEVIN 1997-09-04 15:00:00 TS 19.4074 -115.985 main 715 712 P_____________ EP131997 19.4074 -115.985 TS 42 999 0 12 289
1997247N18248 1997 79 EP MM KEVIN 1997-09-04 18:00:00 TS 19.6000 -116.600 45 998 hurdat_epa main 734 734 O_____________ hurdat_epa EP131997 19.6000 -116.600 TS 45 998 0 12 289
1997247N18248 1997 79 EP MM KEVIN 1997-09-04 21:00:00 TS 19.7999 -117.208 main 758 758 P_____________ EP131997 19.7999 -117.208 TS 47 996 0 12 290
1997247N18248 1997 79 EP MM KEVIN 1997-09-05 00:00:00 TS 20.0000 -117.800 50 995 hurdat_epa main 786 786 O_____________ hurdat_epa EP131997 20.0000 -117.800 TS 50 995 0 12 291
1997247N18248 1997 79 EP MM KEVIN 1997-09-05 03:00:00 TS 20.2148 -118.358 main 818 818 P_____________ EP131997 20.2148 -118.358 TS 50 994 0 11 291
1997247N18248 1997 79 EP MM KEVIN 1997-09-05 06:00:00 TS 20.4000 -118.900 50 994 hurdat_epa main 845 845 O_____________ hurdat_epa EP131997 20.4000 -118.900 TS 50 994 0 11 287
1997247N18248 1997 79 EP MM KEVIN 1997-09-05 09:00:00 TS 20.5298 -119.443 main 880 880 P_____________ EP131997 20.5298 -119.443 TS 50 994 0 11 281
1997247N18248 1997 79 EP MM KEVIN 1997-09-05 12:00:00 TS 20.6000 -120.000 50 995 hurdat_epa main 927 927 O_____________ hurdat_epa EP131997 20.6000 -120.000 TS 50 995 0 11 275
1997247N18248 1997 79 EP MM KEVIN 1997-09-05 15:00:00 TS 20.6299 -120.600 main 969 969 P_____________ EP131997 20.6299 -120.600 TS 47 996 0 11 270
1997247N18248 1997 79 EP MM KEVIN 1997-09-05 18:00:00 TS 20.6000 -121.200 45 998 hurdat_epa main 1010 1010 O_____________ hurdat_epa EP131997 20.6000 -121.200 TS 45 998 0 11 263
1997247N18248 1997 79 EP MM KEVIN 1997-09-05 21:00:00 TS 20.4998 -121.758 main 1059 1059 P_____________ EP131997 20.4998 -121.758 TS 40 1000 0 11 259
1997247N18248 1997 79 EP MM KEVIN 1997-09-06 00:00:00 TS 20.4000 -122.300 35 1003 hurdat_epa main 1101 1101 O_____________ hurdat_epa EP131997 20.4000 -122.300 TS 35 1003 0 10 262
1997247N18248 1997 79 EP MM KEVIN 1997-09-06 03:00:00 TS 20.3623 -122.850 main 1143 1143 P_____________ EP131997 20.3623 -122.850 TS 32 1004 -1 10 270
1997247N18248 1997 79 EP MM KEVIN 1997-09-06 06:00:00 TS 20.4000 -123.400 30 1006 hurdat_epa main 1179 1179 O_____________ hurdat_epa EP131997 20.4000 -123.400 TD 30 1006 -1 10 279
1997247N18248 1997 79 EP MM KEVIN 1997-09-06 09:00:00 TS 20.5348 -123.950 main 1208 1208 P_____________ EP131997 20.5348 -123.950 TD 30 1006 -1 11 286
1997247N18248 1997 79 EP MM KEVIN 1997-09-06 12:00:00 TS 20.7000 -124.500 30 1007 hurdat_epa main 1239 1239 O_____________ hurdat_epa EP131997 20.7000 -124.500 TD 30 1007 -1 11 285
1997247N18248 1997 79 EP MM KEVIN 1997-09-06 15:00:00 TS 20.7998 -125.043 main 1272 1272 P_____________ EP131997 20.7998 -125.043 TD 27 1007 -1 10 281
1997247N18248 1997 79 EP MM KEVIN 1997-09-06 18:00:00 TS 20.9000 -125.600 25 1008 hurdat_epa main 1314 1314 O_____________ hurdat_epa EP131997 20.9000 -125.600 TD 25 1008 -1 11 283
1997247N18248 1997 79 EP MM KEVIN 1997-09-06 21:00:00 TS 21.0380 -126.190 main 1357 1357 P_____________ EP131997 21.0380 -126.190 TD 25 1008 -1 12 285
1997247N18248 1997 79 EP MM KEVIN 1997-09-07 00:00:00 TS 21.2000 -126.800 25 1009 hurdat_epa main 1396 O_____________ hurdat_epa EP131997 21.2000 -126.800 TD 25 1009 -1 12 286

IBTrACS Databaseについて

本データベースは、米国NOAAが公開する1842年以降の世界の熱帯低気圧のベストトラックデータアーカイブInternational Best Track Archive for Climate Stewardship (IBTrACS)を、ウェブで閲覧しやすい形式に変換したものです。

最終更新日:2021-11-26